Terminal Aerodrome Forecast
Issued by NWS El Paso, TX

Home | Current Version | Previous Version | Text Only | Print | Product List | Glossary On
Versions: 1 2 3 4 5 6 7 8 9 10 11 12 13 14
000
FTUS44 KEPZ 050546
TAFELP
TAF
KELP 050546Z 0506/0606 31006KT P6SM VCSH SCT080 BKN120 OVC200
     FM050800 35005KT P6SM SCT150 BKN250
     FM051900 27007KT P6SM FEW100 BKN250=

USA.gov is the U.S. government's official web portal to all federal, state and local government web resources and services.